sensor_id;sensor_type;location;lat;lon;timestamp;pressure;altitude;pressure_sealevel;temperature;humidity
43281;BME280;62175;49.416;8.690;2023-08-06T00:00:26;99661.22;;;20.75;59.20
43281;BME280;62175;49.416;8.690;2023-08-06T00:02:55;99662.08;;;20.88;60.71
43281;BME280;62175;49.416;8.690;2023-08-06T00:05:23;99659.61;;;20.75;58.30
43281;BME280;62175;49.416;8.690;2023-08-06T00:08:01;99657.36;;;21.06;59.75
43281;BME280;62175;49.416;8.690;2023-08-06T00:10:31;99657.47;;;21.03;58.17
43281;BME280;62175;49.416;8.690;2023-08-06T00:13:00;99652.81;;;20.84;59.16
43281;BME280;62175;49.416;8.690;2023-08-06T00:15:28;99649.33;;;20.82;59.32
43281;BME280;62175;49.416;8.690;2023-08-06T00:17:55;99647.05;;;21.15;60.11
43281;BME280;62175;49.416;8.690;2023-08-06T00:20:30;99643.02;;;21.13;59.01
43281;BME280;62175;49.416;8.690;2023-08-06T00:22:58;99646.09;;;21.13;60.39
43281;BME280;62175;49.416;8.690;2023-08-06T00:25:26;99639.43;;;20.48;57.35
43281;BME280;62175;49.416;8.690;2023-08-06T00:27:54;99637.73;;;21.05;59.16
43281;BME280;62175;49.416;8.690;2023-08-06T00:30:26;99628.89;;;20.73;58.94
43281;BME280;62175;49.416;8.690;2023-08-06T00:32:58;99628.72;;;20.97;58.39
43281;BME280;62175;49.416;8.690;2023-08-06T00:35:27;99626.19;;;20.99;59.54
43281;BME280;62175;49.416;8.690;2023-08-06T00:38:02;99621.36;;;20.85;59.70
43281;BME280;62175;49.416;8.690;2023-08-06T00:40:31;99619.88;;;21.06;58.77
43281;BME280;62175;49.416;8.690;2023-08-06T00:43:01;99613.57;;;20.98;57.76
43281;BME280;62175;49.416;8.690;2023-08-06T00:45:30;99608.50;;;20.91;58.53
43281;BME280;62175;49.416;8.690;2023-08-06T00:48:01;99601.53;;;21.11;59.22
43281;BME280;62175;49.416;8.690;2023-08-06T00:50:30;99597.53;;;21.08;57.00
43281;BME280;62175;49.416;8.690;2023-08-06T00:53:00;99595.93;;;20.50;57.04
43281;BME280;62175;49.416;8.690;2023-08-06T00:55:29;99595.21;;;20.70;57.38
43281;BME280;62175;49.416;8.690;2023-08-06T00:57:57;99600.72;;;20.90;57.88
43281;BME280;62175;49.416;8.690;2023-08-06T01:00:26;99601.48;;;21.10;57.24
43281;BME280;62175;49.416;8.690;2023-08-06T01:02:54;99604.22;;;21.02;56.91
43281;BME280;62175;49.416;8.690;2023-08-06T01:05:23;99597.88;;;20.39;60.88
43281;BME280;62175;49.416;8.690;2023-08-06T01:08:07;99594.81;;;20.73;57.87
43281;BME280;62175;49.416;8.690;2023-08-06T01:10:45;99599.85;;;20.83;56.68
43281;BME280;62175;49.416;8.690;2023-08-06T01:13:24;99592.83;;;20.84;56.60
43281;BME280;62175;49.416;8.690;2023-08-06T01:15:55;99588.31;;;20.94;58.56
43281;BME280;62175;49.416;8.690;2023-08-06T01:18:23;99583.52;;;20.84;57.44
43281;BME280;62175;49.416;8.690;2023-08-06T01:20:52;99580.68;;;20.89;57.45
43281;BME280;62175;49.416;8.690;2023-08-06T01:23:20;99578.79;;;20.89;59.11
43281;BME280;62175;49.416;8.690;2023-08-06T01:25:58;99579.62;;;20.82;57.97
43281;BME280;62175;49.416;8.690;2023-08-06T01:28:37;99575.72;;;20.49;55.42
43281;BME280;62175;49.416;8.690;2023-08-06T01:31:10;99574.83;;;20.57;56.58
43281;BME280;62175;49.416;8.690;2023-08-06T01:33:43;99568.02;;;20.73;57.59
43281;BME280;62175;49.416;8.690;2023-08-06T01:36:15;99559.76;;;20.83;56.73
43281;BME280;62175;49.416;8.690;2023-08-06T01:38:53;99558.80;;;20.95;57.50
43281;BME280;62175;49.416;8.690;2023-08-06T01:41:22;99556.71;;;21.12;58.80
43281;BME280;62175;49.416;8.690;2023-08-06T01:43:49;99552.29;;;20.81;56.47
43281;BME280;62175;49.416;8.690;2023-08-06T02:01:48;99551.81;;;20.88;57.83
43281;BME280;62175;49.416;8.690;2023-08-06T02:04:18;99550.37;;;20.08;56.90
43281;BME280;62175;49.416;8.690;2023-08-06T02:07:02;99543.53;;;19.98;55.98
43281;BME280;62175;49.416;8.690;2023-08-06T02:09:34;99536.42;;;20.54;57.26
43281;BME280;62175;49.416;8.690;2023-08-06T02:12:04;99546.06;;;20.73;58.77
43281;BME280;62175;49.416;8.690;2023-08-06T02:14:34;99544.86;;;20.07;54.94
43281;BME280;62175;49.416;8.690;2023-08-06T02:17:08;99544.68;;;19.96;55.20
43281;BME280;62175;49.416;8.690;2023-08-06T02:19:36;99539.40;;;20.47;58.43
43281;BME280;62175;49.416;8.690;2023-08-06T02:22:12;99531.78;;;20.58;56.55
43281;BME280;62175;49.416;8.690;2023-08-06T02:24:51;99529.08;;;20.58;57.59
43281;BME280;62175;49.416;8.690;2023-08-06T02:27:24;99531.15;;;20.65;57.82
43281;BME280;62175;49.416;8.690;2023-08-06T02:30:24;99531.25;;;20.70;56.88
43281;BME280;62175;49.416;8.690;2023-08-06T02:32:54;99535.48;;;20.47;55.42
43281;BME280;62175;49.416;8.690;2023-08-06T02:35:26;99538.07;;;20.18;56.40
43281;BME280;62175;49.416;8.690;2023-08-06T02:37:55;99539.54;;;20.27;55.55
43281;BME280;62175;49.416;8.690;2023-08-06T02:40:23;99534.21;;;20.61;57.23
43281;BME280;62175;49.416;8.690;2023-08-06T02:43:00;99532.20;;;20.39;54.99
43281;BME280;62175;49.416;8.690;2023-08-06T02:45:29;99525.42;;;20.58;55.70
43281;BME280;62175;49.416;8.690;2023-08-06T02:48:19;99525.25;;;20.64;54.93
43281;BME280;62175;49.416;8.690;2023-08-06T02:50:49;99524.54;;;20.76;56.02
43281;BME280;62175;49.416;8.690;2023-08-06T02:53:26;99523.35;;;20.51;55.70
43281;BME280;62175;49.416;8.690;2023-08-06T02:55:55;99524.42;;;20.63;56.09
43281;BME280;62175;49.416;8.690;2023-08-06T02:58:23;99523.38;;;20.60;55.07
43281;BME280;62175;49.416;8.690;2023-08-06T03:01:24;99522.00;;;20.39;54.72
43281;BME280;62175;49.416;8.690;2023-08-06T03:03:53;99525.38;;;20.45;56.17
43281;BME280;62175;49.416;8.690;2023-08-06T03:06:25;99522.67;;;20.64;55.27
43281;BME280;62175;49.416;8.690;2023-08-06T03:08:53;99526.27;;;20.32;54.95
43281;BME280;62175;49.416;8.690;2023-08-06T03:11:21;99524.52;;;19.60;57.18
43281;BME280;62175;49.416;8.690;2023-08-06T03:13:48;99520.25;;;20.79;56.94
43281;BME280;62175;49.416;8.690;2023-08-06T03:21:35;99513.21;;;20.26;57.67
43281;BME280;62175;49.416;8.690;2023-08-06T03:24:03;99509.30;;;19.93;58.23
43281;BME280;62175;49.416;8.690;2023-08-06T03:26:33;99512.72;;;20.23;57.97
43281;BME280;62175;49.416;8.690;2023-08-06T03:29:06;99511.05;;;20.43;57.01
43281;BME280;62175;49.416;8.690;2023-08-06T03:31:47;99507.27;;;20.41;57.57
43281;BME280;62175;49.416;8.690;2023-08-06T03:34:28;99506.52;;;20.48;59.52
43281;BME280;62175;49.416;8.690;2023-08-06T03:36:56;99505.19;;;20.03;55.55
43281;BME280;62175;49.416;8.690;2023-08-06T03:39:24;99501.15;;;20.44;56.05
43281;BME280;62175;49.416;8.690;2023-08-06T03:41:53;99499.12;;;20.45;57.53
43281;BME280;62175;49.416;8.690;2023-08-06T03:44:21;99499.84;;;20.51;58.74
43281;BME280;62175;49.416;8.690;2023-08-06T03:46:52;99498.72;;;20.42;56.79
43281;BME280;62175;49.416;8.690;2023-08-06T03:49:22;99500.47;;;20.18;56.94
43281;BME280;62175;49.416;8.690;2023-08-06T03:51:49;99502.90;;;20.32;56.85
43281;BME280;62175;49.416;8.690;2023-08-06T03:54:16;99498.47;;;19.80;56.80
43281;BME280;62175;49.416;8.690;2023-08-06T03:56:44;99495.58;;;20.05;57.71
43281;BME280;62175;49.416;8.690;2023-08-06T03:59:12;99492.64;;;20.24;56.99
43281;BME280;62175;49.416;8.690;2023-08-06T04:01:39;99501.27;;;20.29;57.87
43281;BME280;62175;49.416;8.690;2023-08-06T04:04:06;99504.80;;;20.46;57.58
43281;BME280;62175;49.416;8.690;2023-08-06T04:06:34;99501.13;;;19.60;56.41
43281;BME280;62175;49.416;8.690;2023-08-06T04:09:02;99502.88;;;19.60;57.53
43281;BME280;62175;49.416;8.690;2023-08-06T04:11:30;99500.92;;;19.81;58.82
43281;BME280;62175;49.416;8.690;2023-08-06T04:13:58;99497.76;;;19.45;56.77
43281;BME280;62175;49.416;8.690;2023-08-06T04:16:25;99500.14;;;18.96;58.06
43281;BME280;62175;49.416;8.690;2023-08-06T04:18:54;99502.32;;;19.75;58.79
43281;BME280;62175;49.416;8.690;2023-08-06T04:21:25;99494.33;;;19.42;58.40
43281;BME280;62175;49.416;8.690;2023-08-06T04:23:53;99503.28;;;19.80;57.84
43281;BME280;62175;49.416;8.690;2023-08-06T04:26:20;99501.43;;;19.32;57.22
43281;BME280;62175;49.416;8.690;2023-08-06T04:28:48;99500.02;;;20.12;57.51
43281;BME280;62175;49.416;8.690;2023-08-06T04:31:16;99507.95;;;19.54;56.79
43281;BME280;62175;49.416;8.690;2023-08-06T04:33:43;99505.21;;;19.78;57.03
43281;BME280;62175;49.416;8.690;2023-08-06T04:36:12;99506.30;;;19.93;56.37
43281;BME280;62175;49.416;8.690;2023-08-06T04:38:39;99508.05;;;19.78;59.28
43281;BME280;62175;49.416;8.690;2023-08-06T04:41:07;99509.12;;;19.83;57.44
43281;BME280;62175;49.416;8.690;2023-08-06T04:43:36;99509.91;;;19.83;57.02
43281;BME280;62175;49.416;8.690;2023-08-06T04:46:05;99508.47;;;18.97;57.88
43281;BME280;62175;49.416;8.690;2023-08-06T04:48:33;99509.91;;;19.23;60.11
43281;BME280;62175;49.416;8.690;2023-08-06T04:51:02;99511.25;;;19.88;58.38
43281;BME280;62175;49.416;8.690;2023-08-06T04:53:29;99514.31;;;19.71;58.79
43281;BME280;62175;49.416;8.690;2023-08-06T04:56:06;99516.75;;;19.38;58.89
43281;BME280;62175;49.416;8.690;2023-08-06T04:58:38;99515.21;;;19.32;58.33
43281;BME280;62175;49.416;8.690;2023-08-06T05:01:05;99511.69;;;19.21;58.17
43281;BME280;62175;49.416;8.690;2023-08-06T05:03:36;99515.72;;;19.78;56.46
43281;BME280;62175;49.416;8.690;2023-08-06T05:06:04;99511.32;;;19.43;57.00
43281;BME280;62175;49.416;8.690;2023-08-06T05:08:32;99515.52;;;19.34;57.24
43281;BME280;62175;49.416;8.690;2023-08-06T05:11:04;99514.65;;;19.77;58.33
43281;BME280;62175;49.416;8.690;2023-08-06T05:13:32;99512.77;;;18.70;57.06
43281;BME280;62175;49.416;8.690;2023-08-06T05:16:01;99516.80;;;19.45;57.66
43281;BME280;62175;49.416;8.690;2023-08-06T05:18:29;99515.00;;;19.65;57.38
43281;BME280;62175;49.416;8.690;2023-08-06T05:20:57;99517.44;;;19.50;59.06
43281;BME280;62175;49.416;8.690;2023-08-06T05:23:25;99516.64;;;19.57;58.92
43281;BME280;62175;49.416;8.690;2023-08-06T05:25:53;99514.98;;;19.64;60.03
43281;BME280;62175;49.416;8.690;2023-08-06T05:28:22;99513.97;;;19.46;59.75
43281;BME280;62175;49.416;8.690;2023-08-06T05:30:49;99514.65;;;19.32;60.67
43281;BME280;62175;49.416;8.690;2023-08-06T05:33:17;99512.51;;;18.89;61.14
43281;BME280;62175;49.416;8.690;2023-08-06T05:35:44;99514.27;;;19.26;60.92
43281;BME280;62175;49.416;8.690;2023-08-06T05:38:12;99519.42;;;19.10;61.15
43281;BME280;62175;49.416;8.690;2023-08-06T05:40:40;99520.15;;;19.18;61.21
43281;BME280;62175;49.416;8.690;2023-08-06T05:43:08;99519.88;;;19.14;60.91
43281;BME280;62175;49.416;8.690;2023-08-06T05:45:36;99519.78;;;19.61;62.03
43281;BME280;62175;49.416;8.690;2023-08-06T05:48:04;99524.66;;;19.28;61.75
43281;BME280;62175;49.416;8.690;2023-08-06T05:50:33;99527.17;;;19.40;61.53
43281;BME280;62175;49.416;8.690;2023-08-06T05:53:00;99530.10;;;19.29;61.77
43281;BME280;62175;49.416;8.690;2023-08-06T05:55:28;99534.07;;;19.31;61.72
43281;BME280;62175;49.416;8.690;2023-08-06T05:57:56;99535.03;;;19.10;61.08
43281;BME280;62175;49.416;8.690;2023-08-06T06:00:23;99535.22;;;19.10;61.17
43281;BME280;62175;49.416;8.690;2023-08-06T06:02:51;99533.59;;;19.44;61.34
43281;BME280;62175;49.416;8.690;2023-08-06T06:05:19;99536.91;;;18.74;62.61
43281;BME280;62175;49.416;8.690;2023-08-06T06:07:46;99533.01;;;19.30;61.68
43281;BME280;62175;49.416;8.690;2023-08-06T06:10:14;99536.25;;;19.56;62.37
43281;BME280;62175;49.416;8.690;2023-08-06T06:12:41;99535.75;;;19.28;61.42
43281;BME280;62175;49.416;8.690;2023-08-06T06:15:09;99535.00;;;19.26;62.81
43281;BME280;62175;49.416;8.690;2023-08-06T06:17:37;99536.40;;;19.61;61.84
43281;BME280;62175;49.416;8.690;2023-08-06T06:20:04;99540.08;;;19.19;62.24
43281;BME280;62175;49.416;8.690;2023-08-06T06:22:31;99537.93;;;19.62;61.35
43281;BME280;62175;49.416;8.690;2023-08-06T06:24:58;99539.14;;;19.59;61.55
43281;BME280;62175;49.416;8.690;2023-08-06T06:27:26;99543.31;;;19.22;61.96
43281;BME280;62175;49.416;8.690;2023-08-06T06:29:53;99541.24;;;19.51;60.94
43281;BME280;62175;49.416;8.690;2023-08-06T06:32:21;99547.40;;;19.08;62.54
43281;BME280;62175;49.416;8.690;2023-08-06T06:34:49;99547.86;;;19.36;62.57
43281;BME280;62175;49.416;8.690;2023-08-06T06:37:16;99549.08;;;18.92;62.50
43281;BME280;62175;49.416;8.690;2023-08-06T06:39:42;99556.16;;;18.80;62.03
43281;BME280;62175;49.416;8.690;2023-08-06T06:42:10;99554.71;;;19.28;62.27
43281;BME280;62175;49.416;8.690;2023-08-06T06:44:37;99559.98;;;19.06;63.13
43281;BME280;62175;49.416;8.690;2023-08-06T06:47:05;99561.36;;;18.91;62.45
43281;BME280;62175;49.416;8.690;2023-08-06T06:49:33;99555.52;;;19.05;63.55
43281;BME280;62175;49.416;8.690;2023-08-06T06:52:00;99554.64;;;19.54;62.38
43281;BME280;62175;49.416;8.690;2023-08-06T06:54:28;99555.79;;;19.24;62.36
43281;BME280;62175;49.416;8.690;2023-08-06T06:56:55;99552.50;;;19.37;61.93
43281;BME280;62175;49.416;8.690;2023-08-06T06:59:23;99553.71;;;19.03;61.34
43281;BME280;62175;49.416;8.690;2023-08-06T07:01:50;99548.91;;;18.91;62.96
43281;BME280;62175;49.416;8.690;2023-08-06T07:04:18;99545.43;;;19.37;62.26
43281;BME280;62175;49.416;8.690;2023-08-06T07:06:48;99543.75;;;19.57;62.02
43281;BME280;62175;49.416;8.690;2023-08-06T07:09:15;99543.28;;;19.75;61.52
43281;BME280;62175;49.416;8.690;2023-08-06T07:11:43;99542.57;;;19.17;61.26
43281;BME280;62175;49.416;8.690;2023-08-06T07:14:11;99544.74;;;18.94;62.27
43281;BME280;62175;49.416;8.690;2023-08-06T07:16:39;99541.77;;;18.82;62.03
43281;BME280;62175;49.416;8.690;2023-08-06T07:19:06;99542.68;;;19.02;62.23
43281;BME280;62175;49.416;8.690;2023-08-06T07:21:34;99541.44;;;19.17;61.70
43281;BME280;62175;49.416;8.690;2023-08-06T07:24:01;99543.14;;;19.12;63.74
43281;BME280;62175;49.416;8.690;2023-08-06T07:26:28;99542.14;;;19.41;61.85
43281;BME280;62175;49.416;8.690;2023-08-06T07:28:55;99543.74;;;19.51;61.36
43281;BME280;62175;49.416;8.690;2023-08-06T07:31:23;99546.13;;;19.37;62.84
43281;BME280;62175;49.416;8.690;2023-08-06T07:33:51;99548.04;;;19.56;61.56
43281;BME280;62175;49.416;8.690;2023-08-06T07:36:18;99547.61;;;19.32;61.11
43281;BME280;62175;49.416;8.690;2023-08-06T07:38:47;99545.97;;;19.46;61.44
43281;BME280;62175;49.416;8.690;2023-08-06T07:41:14;99543.07;;;19.28;61.26
43281;BME280;62175;49.416;8.690;2023-08-06T07:43:42;99541.74;;;19.40;61.95
43281;BME280;62175;49.416;8.690;2023-08-06T07:46:12;99541.80;;;19.23;62.32
43281;BME280;62175;49.416;8.690;2023-08-06T07:48:39;99543.13;;;19.44;61.83
43281;BME280;62175;49.416;8.690;2023-08-06T07:51:07;99541.04;;;19.02;61.74
43281;BME280;62175;49.416;8.690;2023-08-06T07:53:35;99545.82;;;19.66;63.59
43281;BME280;62175;49.416;8.690;2023-08-06T07:56:03;99546.44;;;19.68;61.84
43281;BME280;62175;49.416;8.690;2023-08-06T07:58:30;99544.36;;;19.63;63.16
43281;BME280;62175;49.416;8.690;2023-08-06T08:00:57;99543.18;;;19.43;61.72
43281;BME280;62175;49.416;8.690;2023-08-06T08:03:24;99542.80;;;19.67;61.87
43281;BME280;62175;49.416;8.690;2023-08-06T08:05:55;99541.95;;;19.46;62.11
43281;BME280;62175;49.416;8.690;2023-08-06T08:08:22;99551.30;;;19.67;63.15
43281;BME280;62175;49.416;8.690;2023-08-06T08:10:50;99549.55;;;19.42;62.96
43281;BME280;62175;49.416;8.690;2023-08-06T08:13:17;99550.79;;;19.36;62.00
43281;BME280;62175;49.416;8.690;2023-08-06T08:15:45;99548.29;;;19.46;61.85
43281;BME280;62175;49.416;8.690;2023-08-06T08:18:13;99547.05;;;19.54;62.66
43281;BME280;62175;49.416;8.690;2023-08-06T08:20:41;99544.24;;;19.53;62.00
43281;BME280;62175;49.416;8.690;2023-08-06T08:23:08;99541.11;;;19.46;61.96
43281;BME280;62175;49.416;8.690;2023-08-06T08:25:36;99543.79;;;19.42;62.64
43281;BME280;62175;49.416;8.690;2023-08-06T08:28:04;99537.56;;;18.98;61.86
43281;BME280;62175;49.416;8.690;2023-08-06T08:30:32;99537.74;;;19.51;62.46
43281;BME280;62175;49.416;8.690;2023-08-06T08:33:00;99536.87;;;19.15;62.41
43281;BME280;62175;49.416;8.690;2023-08-06T08:35:28;99534.41;;;19.26;64.50
43281;BME280;62175;49.416;8.690;2023-08-06T08:37:56;99531.85;;;19.24;61.99
43281;BME280;62175;49.416;8.690;2023-08-06T08:40:28;99534.08;;;19.21;62.91
43281;BME280;62175;49.416;8.690;2023-08-06T08:42:57;99531.49;;;19.39;63.48
43281;BME280;62175;49.416;8.690;2023-08-06T08:45:27;99526.32;;;19.32;64.47
43281;BME280;62175;49.416;8.690;2023-08-06T08:54:19;99520.26;;;19.46;64.45
43281;BME280;62175;49.416;8.690;2023-08-06T08:56:48;99526.21;;;18.77;63.86
43281;BME280;62175;49.416;8.690;2023-08-06T08:59:16;99524.05;;;19.58;63.32
43281;BME280;62175;49.416;8.690;2023-08-06T09:01:46;99522.51;;;19.72;63.68
43281;BME280;62175;49.416;8.690;2023-08-06T09:04:15;99522.92;;;19.81;62.62
43281;BME280;62175;49.416;8.690;2023-08-06T09:06:47;99518.64;;;19.81;64.05
43281;BME280;62175;49.416;8.690;2023-08-06T09:09:24;99520.66;;;19.89;63.02
43281;BME280;62175;49.416;8.690;2023-08-06T09:11:53;99516.16;;;19.73;63.02
43281;BME280;62175;49.416;8.690;2023-08-06T22:02:55;100216.55;;;17.73;60.54
43281;BME280;62175;49.416;8.690;2023-08-06T22:05:24;100216.80;;;17.90;60.09
43281;BME280;62175;49.416;8.690;2023-08-06T22:07:52;100222.07;;;17.78;60.81
43281;BME280;62175;49.416;8.690;2023-08-06T22:10:28;100220.99;;;17.98;59.93
43281;BME280;62175;49.416;8.690;2023-08-06T22:12:55;100221.97;;;18.31;60.14
43281;BME280;62175;49.416;8.690;2023-08-06T22:15:23;100224.28;;;17.95;58.43
43281;BME280;62175;49.416;8.690;2023-08-06T22:17:52;100226.16;;;18.51;59.69
43281;BME280;62175;49.416;8.690;2023-08-06T22:20:20;100227.63;;;17.79;62.26
43281;BME280;62175;49.416;8.690;2023-08-06T22:22:47;100229.11;;;17.89;60.55
43281;BME280;62175;49.416;8.690;2023-08-06T22:25:15;100235.18;;;17.77;60.04
43281;BME280;62175;49.416;8.690;2023-08-06T22:27:42;100233.13;;;18.26;60.22
43281;BME280;62175;49.416;8.690;2023-08-06T22:30:10;100238.66;;;18.02;61.14
43281;BME280;62175;49.416;8.690;2023-08-06T22:32:36;100245.72;;;17.65;60.66
43281;BME280;62175;49.416;8.690;2023-08-06T22:35:04;100239.32;;;17.93;61.61
43281;BME280;62175;49.416;8.690;2023-08-06T22:37:31;100241.12;;;17.96;60.47
43281;BME280;62175;49.416;8.690;2023-08-06T22:39:58;100245.78;;;18.10;60.43
43281;BME280;62175;49.416;8.690;2023-08-06T22:42:26;100247.73;;;17.95;60.35
43281;BME280;62175;49.416;8.690;2023-08-06T22:44:54;100251.79;;;17.80;59.39
43281;BME280;62175;49.416;8.690;2023-08-06T22:47:21;100256.08;;;17.71;59.81
43281;BME280;62175;49.416;8.690;2023-08-06T22:49:48;100260.56;;;17.09;61.78
43281;BME280;62175;49.416;8.690;2023-08-06T22:52:15;100263.24;;;18.25;61.94
43281;BME280;62175;49.416;8.690;2023-08-06T22:54:43;100261.01;;;17.63;62.11
43281;BME280;62175;49.416;8.690;2023-08-06T22:57:10;100266.47;;;17.22;60.77
43281;BME280;62175;49.416;8.690;2023-08-06T22:59:37;100270.83;;;18.00;61.36
43281;BME280;62175;49.416;8.690;2023-08-06T23:02:07;100272.25;;;17.94;61.49
43281;BME280;62175;49.416;8.690;2023-08-06T23:04:34;100272.49;;;17.49;60.47
43281;BME280;62175;49.416;8.690;2023-08-06T23:07:01;100272.41;;;17.80;60.33
43281;BME280;62175;49.416;8.690;2023-08-06T23:09:28;100279.50;;;16.97;61.08
43281;BME280;62175;49.416;8.690;2023-08-06T23:11:55;100278.19;;;17.98;60.69
43281;BME280;62175;49.416;8.690;2023-08-06T23:14:22;100277.76;;;17.29;61.15
43281;BME280;62175;49.416;8.690;2023-08-06T23:16:49;100280.36;;;17.57;61.38
43281;BME280;62175;49.416;8.690;2023-08-06T23:19:17;100277.79;;;17.76;61.21
43281;BME280;62175;49.416;8.690;2023-08-06T23:21:44;100281.58;;;18.02;61.76
43281;BME280;62175;49.416;8.690;2023-08-06T23:24:11;100283.76;;;17.85;63.04
43281;BME280;62175;49.416;8.690;2023-08-06T23:26:38;100280.04;;;17.60;59.98
43281;BME280;62175;49.416;8.690;2023-08-06T23:29:05;100282.92;;;17.78;60.39
43281;BME280;62175;49.416;8.690;2023-08-06T23:31:33;100281.83;;;17.94;61.36
43281;BME280;62175;49.416;8.690;2023-08-06T23:34:00;100288.20;;;18.01;60.03
43281;BME280;62175;49.416;8.690;2023-08-06T23:36:27;100287.06;;;17.92;60.33
43281;BME280;62175;49.416;8.690;2023-08-06T23:38:54;100289.56;;;17.98;59.56
43281;BME280;62175;49.416;8.690;2023-08-06T23:41:21;100287.91;;;17.34;60.29
43281;BME280;62175;49.416;8.690;2023-08-06T23:43:48;100287.56;;;18.13;59.99
43281;BME280;62175;49.416;8.690;2023-08-06T23:46:15;100291.96;;;18.12;60.20
43281;BME280;62175;49.416;8.690;2023-08-06T23:48:42;100290.74;;;18.11;61.30
43281;BME280;62175;49.416;8.690;2023-08-06T23:51:10;100291.91;;;17.57;59.08
43281;BME280;62175;49.416;8.690;2023-08-06T23:53:37;100295.02;;;17.44;59.77
43281;BME280;62175;49.416;8.690;2023-08-06T23:56:04;100295.45;;;17.77;60.78
43281;BME280;62175;49.416;8.690;2023-08-06T23:58:31;100291.93;;;17.74;60.72
